KCVB

Castroville Municipal Airport

Castroville, Texas, USA
METAR KCVB 230515Z AUTO 00000KT 7SM -RA OVC036 11/09 A3022 RMK AO2 P0001 T01100094
Observed Flight Rules
Oct-23 @ 05:15 UTC (28 minutes ago) Visual Flight Rules
Visibility Clouds Conditions
7 miles
  • Overcast at 3,600' AGL
  • Light Rain
Temperatures Readings Precipitation
Current 11°C / 52°F
Dewpoint 9°C / 48°F
Humidity 88%
Altimeter 30.22" Hg
Pressure 1023 hPa
Elevation 235
Current Rain 0.01
METAR KCVB 230515Z AUTO 00000KT 7SM -RA OVC036 11/09 A3022 RMK AO2 P0001 T01100094
Observed Flight Rules
Oct-23 @ 05:15 UTC
(28 minutes ago)
VFR
Clouds
  • Overcast at 3,600' AGL
Conditions
  • Light Rain
Temperature Dewpoint
11°C / 52°F 9°C / 48°F
Humidity Altimeter Pressure
88% 30.22" Hg 1023 hPa
Current Rain
0.01